Information for San Francisco

back to airport list

ICAO Code:KSFO Country:USA
Airport Name:San Francisco Is Hub:No
Latitude:37.6189 Longitude:-122.375
Scheduled Departures:0 Scheduled Arrivals:0
Total Past Departures:1 Total Past Arrivals:1
Pilots Based:0 Current Pilot Location:0
KSFO 191256Z 28012KT 10SM CLR 15/12 A3001 RMK AO2 SLP161 T01500117


Nearby Destination Airports

ICAO Airport Country GC Distance View
KLAX Los Angeles USA 293 NM View Airport Page


+ Show Timetable

Scheduled Departures from KSFO

Flight To Destination Days Dep. Time Aircraft Info
No Scheduled Departures!


Scheduled Arrivals to KSFO

Flight From Origin Days Arr. Time Aircraft Info
No Scheduled Arrivals!
+ Show Recent Flight Info

Recent Departures from KSFO

Flight To Destination Pilot Flighttime Landingrate Aircraft View
ASX203 KMIA Miami Intl Damian Belica 05.10.45 -150 ft/m B763 View Report


Recent Arrivals to KSFO

Flight From Origin Pilot Flighttime Landingrate Aircraft View
ASX202 CYVR Vancouver Damian Belica 02.07.39 -132 ft/m B763 View Report
+ Show Pilot Information

Pilots based at KSFO

Avatar Pilot ID Name Location Rank View Profile
No Pilots are based at this airport!


Pilots currently at KSFO

Avatar Pilot ID Name Location Rank On Location since View Profile
Currently there are no pilots at this airport!
- Hide Map